ANZ981 ZGHA-ZYTX
Flight info
| Callsign | ANZ981 |
|---|---|
| Flight time | 2h 19m |
| Altitude | 37100 |
| Route | GUD9X GUDRO W56 LEBUN/K0878S1160 W56 NUDKU/K0870S1130 W56 VYK W34 OTBUL W35 CHG A575 OMDUS OMD73A |
| Aircraft | B77W/H-SDE1E2E3FGHIJ2J3J4J5M1RWXY/LB1D1 |
Departure
| Time | 2026-04-17 06:38 |
|---|---|
| Airport | Changsha Huanghua International Airport (ZGHA) |
Arrival
| Time | 2026-04-17 08:58 |
|---|---|
| Airport | Shenyang Taoxian International Airport (ZYTX) |
| Time | Latitude | Longitude | Altitude | Speed | Heading |
|---|---|---|---|---|---|
| 2026-04-17 05:58 | 28.18678 | 113.21600 | 234 ft | 0 kts | 313° |
| 2026-04-17 06:28 | 28.18673 | 113.21606 | 234 ft | 2 kts | 306° |
| 2026-04-17 06:28 | 28.18666 | 113.21622 | 233 ft | 2 kts | 283° |
| 2026-04-17 06:28 | 28.18664 | 113.21639 | 234 ft | 2 kts | 266° |
| 2026-04-17 06:29 | 28.18667 | 113.21654 | 234 ft | 2 kts | 249° |
| 2026-04-17 06:29 | 28.18674 | 113.21670 | 233 ft | 2 kts | 231° |
| 2026-04-17 06:29 | 28.18684 | 113.21681 | 233 ft | 2 kts | 213° |
| 2026-04-17 06:29 | 28.18698 | 113.21689 | 233 ft | 2 kts | 196° |
| 2026-04-17 06:30 | 28.18712 | 113.21692 | 234 ft | 2 kts | 179° |
| 2026-04-17 06:30 | 28.18727 | 113.21690 | 234 ft | 2 kts | 174° |
| 2026-04-17 06:30 | 28.18742 | 113.21689 | 234 ft | 1 kts | 176° |
| 2026-04-17 06:30 | 28.18746 | 113.21689 | 234 ft | 0 kts | 177° |
| 2026-04-17 06:31 | 28.18745 | 113.21689 | 233 ft | 0 kts | 177° |
| 2026-04-17 06:33 | 28.18742 | 113.21689 | 233 ft | 2 kts | 176° |
| 2026-04-17 06:33 | 28.18710 | 113.21690 | 233 ft | 7 kts | 176° |
| 2026-04-17 06:33 | 28.18648 | 113.21694 | 233 ft | 9 kts | 176° |
| 2026-04-17 06:34 | 28.18592 | 113.21720 | 233 ft | 8 kts | 118° |
| 2026-04-17 06:34 | 28.18580 | 113.21788 | 233 ft | 9 kts | 117° |
| 2026-04-17 06:34 | 28.18517 | 113.21812 | 233 ft | 10 kts | 176° |
| 2026-04-17 06:34 | 28.18435 | 113.21819 | 233 ft | 12 kts | 177° |
| 2026-04-17 06:35 | 28.18344 | 113.21824 | 233 ft | 13 kts | 177° |
| 2026-04-17 06:35 | 28.18245 | 113.21830 | 233 ft | 14 kts | 176° |
| 2026-04-17 06:35 | 28.18139 | 113.21837 | 233 ft | 15 kts | 176° |
| 2026-04-17 06:35 | 28.18026 | 113.21844 | 233 ft | 16 kts | 176° |
| 2026-04-17 06:36 | 28.17908 | 113.21851 | 233 ft | 17 kts | 176° |
| 2026-04-17 06:36 | 28.17792 | 113.21859 | 233 ft | 11 kts | 172° |
| 2026-04-17 06:36 | 28.17747 | 113.21900 | 233 ft | 8 kts | 114° |
| 2026-04-17 06:36 | 28.17742 | 113.21965 | 234 ft | 8 kts | 86° |
| 2026-04-17 06:37 | 28.17753 | 113.22026 | 233 ft | 7 kts | 53° |
| 2026-04-17 06:37 | 28.17802 | 113.22044 | 233 ft | 8 kts | 358° |
| 2026-04-17 06:37 | 28.17868 | 113.22041 | 233 ft | 11 kts | 357° |
| 2026-04-17 06:37 | 28.18094 | 113.22028 | 234 ft | 65 kts | 357° |
| 2026-04-17 06:38 | 28.18793 | 113.21983 | 234 ft | 132 kts | 356° |
| 2026-04-17 06:38 | 28.19888 | 113.21916 | 396 ft | 172 kts | 356° |
| 2026-04-17 06:38 | 28.21085 | 113.21838 | 1046 ft | 177 kts | 357° |
| 2026-04-17 06:38 | 28.22336 | 113.21763 | 1681 ft | 185 kts | 356° |
| 2026-04-17 06:39 | 28.23688 | 113.21682 | 2018 ft | 204 kts | 357° |
| 2026-04-17 06:39 | 28.25178 | 113.21590 | 2429 ft | 223 kts | 357° |
| 2026-04-17 06:39 | 28.26777 | 113.21568 | 2832 ft | 242 kts | 8° |
| 2026-04-17 06:39 | 28.28396 | 113.22247 | 3377 ft | 255 kts | 33° |
| 2026-04-17 06:40 | 28.29624 | 113.23673 | 4159 ft | 258 kts | 52° |
| 2026-04-17 06:40 | 28.30649 | 113.25372 | 4853 ft | 264 kts | 55° |
| 2026-04-17 06:40 | 28.31675 | 113.27128 | 5544 ft | 269 kts | 55° |
| 2026-04-17 06:40 | 28.32709 | 113.28880 | 6297 ft | 271 kts | 55° |
| 2026-04-17 06:41 | 28.33761 | 113.30656 | 6986 ft | 275 kts | 54° |
| 2026-04-17 06:41 | 28.34830 | 113.32464 | 7706 ft | 278 kts | 54° |
| 2026-04-17 06:41 | 28.35917 | 113.34302 | 8352 ft | 284 kts | 54° |
| 2026-04-17 06:41 | 28.37020 | 113.36168 | 9044 ft | 286 kts | 54° |
| 2026-04-17 06:42 | 28.38126 | 113.38039 | 9642 ft | 292 kts | 54° |
| 2026-04-17 06:42 | 28.39266 | 113.39969 | 10239 ft | 298 kts | 54° |
| 2026-04-17 06:42 | 28.40457 | 113.41985 | 10611 ft | 313 kts | 54° |
| 2026-04-17 06:42 | 28.41819 | 113.43973 | 10963 ft | 329 kts | 45° |
| 2026-04-17 06:43 | 28.43575 | 113.45734 | 11245 ft | 346 kts | 34° |
| 2026-04-17 06:43 | 28.45705 | 113.47128 | 11560 ft | 361 kts | 22° |
| 2026-04-17 06:43 | 28.48152 | 113.48024 | 11948 ft | 374 kts | 10° |
| 2026-04-17 06:43 | 28.50739 | 113.48347 | 12482 ft | 383 kts | 2° |
| 2026-04-17 06:44 | 28.53466 | 113.48508 | 13067 ft | 392 kts | 1° |
| 2026-04-17 06:44 | 28.56190 | 113.48672 | 13832 ft | 396 kts | 1° |
| 2026-04-17 06:44 | 28.58926 | 113.48848 | 14795 ft | 397 kts | 1° |
| 2026-04-17 06:44 | 28.61717 | 113.49034 | 15532 ft | 406 kts | 1° |
| 2026-04-17 06:45 | 28.64545 | 113.49226 | 16185 ft | 416 kts | 1° |
| 2026-04-17 06:45 | 28.67499 | 113.49432 | 16865 ft | 425 kts | 1° |
| 2026-04-17 06:45 | 28.70452 | 113.49640 | 17534 ft | 433 kts | 1° |
| 2026-04-17 06:45 | 28.73473 | 113.49854 | 18256 ft | 439 kts | 1° |
| 2026-04-17 06:46 | 28.76541 | 113.50074 | 19067 ft | 442 kts | 0° |
| 2026-04-17 06:46 | 28.79618 | 113.50294 | 19863 ft | 446 kts | 360° |
| 2026-04-17 06:46 | 28.82720 | 113.50515 | 20618 ft | 450 kts | 359° |
| 2026-04-17 06:46 | 28.85868 | 113.50740 | 21348 ft | 454 kts | 359° |
| 2026-04-17 06:47 | 28.89062 | 113.50968 | 22028 ft | 459 kts | 358° |
| 2026-04-17 06:47 | 28.92230 | 113.51196 | 22649 ft | 464 kts | 358° |
| 2026-04-17 06:47 | 28.95489 | 113.51429 | 23323 ft | 468 kts | 358° |
| 2026-04-17 06:47 | 28.98765 | 113.51664 | 23915 ft | 473 kts | 358° |
| 2026-04-17 06:48 | 29.02057 | 113.51901 | 24532 ft | 478 kts | 358° |
| 2026-04-17 06:48 | 29.05400 | 113.52142 | 25152 ft | 481 kts | 358° |
| 2026-04-17 06:48 | 29.08734 | 113.52383 | 25752 ft | 485 kts | 358° |
| 2026-04-17 06:48 | 29.12124 | 113.52627 | 26364 ft | 490 kts | 358° |
| 2026-04-17 06:49 | 29.15576 | 113.52876 | 26889 ft | 495 kts | 358° |
| 2026-04-17 06:49 | 29.19014 | 113.53123 | 27448 ft | 500 kts | 358° |
| 2026-04-17 06:49 | 29.22528 | 113.53378 | 28014 ft | 504 kts | 357° |
| 2026-04-17 06:49 | 29.26058 | 113.53632 | 28547 ft | 510 kts | 358° |
| 2026-04-17 06:50 | 29.29634 | 113.53894 | 29025 ft | 517 kts | 358° |
| 2026-04-17 06:50 | 29.33186 | 113.54195 | 29608 ft | 521 kts | 358° |
| 2026-04-17 06:50 | 29.36815 | 113.54516 | 30456 ft | 518 kts | 358° |
| 2026-04-17 06:50 | 29.40395 | 113.54833 | 31433 ft | 512 kts | 358° |
| 2026-04-17 06:51 | 29.43901 | 113.55143 | 32322 ft | 506 kts | 357° |
| 2026-04-17 06:51 | 29.47392 | 113.55449 | 32924 ft | 505 kts | 356° |
| 2026-04-17 06:51 | 29.50925 | 113.55756 | 33501 ft | 506 kts | 356° |
| 2026-04-17 06:51 | 29.54440 | 113.56062 | 34015 ft | 506 kts | 356° |
| 2026-04-17 06:52 | 29.57973 | 113.56368 | 34495 ft | 508 kts | 356° |
| 2026-04-17 06:52 | 29.61535 | 113.56678 | 35014 ft | 507 kts | 356° |
| 2026-04-17 06:52 | 29.65095 | 113.56989 | 35575 ft | 505 kts | 355° |
| 2026-04-17 06:52 | 29.68587 | 113.57295 | 36106 ft | 505 kts | 355° |
| 2026-04-17 06:53 | 29.72095 | 113.57600 | 36517 ft | 505 kts | 355° |
| 2026-04-17 06:53 | 29.75621 | 113.57906 | 36934 ft | 505 kts | 355° |
| 2026-04-17 06:53 | 29.79172 | 113.58215 | 37078 ft | 510 kts | 355° |
| 2026-04-17 06:54 | 29.86385 | 113.58838 | 37085 ft | 524 kts | 355° |
| 2026-04-17 06:54 | 29.93717 | 113.59760 | 37073 ft | 546 kts | 4° |
| 2026-04-17 06:54 | 29.97424 | 113.60979 | 37089 ft | 561 kts | 13° |
| 2026-04-17 06:55 | 30.01052 | 113.62688 | 37068 ft | 568 kts | 17° |
| 2026-04-17 06:55 | 30.08395 | 113.66393 | 37060 ft | 569 kts | 17° |
| 2026-04-17 06:56 | 30.15689 | 113.70070 | 37068 ft | 570 kts | 17° |
| 2026-04-17 06:56 | 30.22979 | 113.73737 | 37050 ft | 568 kts | 17° |
| 2026-04-17 06:57 | 30.30249 | 113.77390 | 37023 ft | 568 kts | 17° |
| 2026-04-17 06:57 | 30.37540 | 113.81054 | 37050 ft | 570 kts | 17° |
| 2026-04-17 06:58 | 30.44776 | 113.84696 | 37033 ft | 567 kts | 17° |
| 2026-04-17 06:58 | 30.52043 | 113.88355 | 37060 ft | 568 kts | 17° |
| 2026-04-17 06:59 | 30.59295 | 113.92013 | 37080 ft | 567 kts | 17° |
| 2026-04-17 06:59 | 30.66507 | 113.95624 | 37092 ft | 564 kts | 16° |
| 2026-04-17 07:00 | 30.73754 | 113.99246 | 37114 ft | 566 kts | 20° |
| 2026-04-17 07:00 | 30.80817 | 114.03222 | 37077 ft | 566 kts | 19° |
| 2026-04-17 07:01 | 30.87957 | 114.07111 | 37098 ft | 565 kts | 19° |
| 2026-04-17 07:01 | 30.95080 | 114.10983 | 37081 ft | 566 kts | 19° |
| 2026-04-17 07:02 | 31.02227 | 114.14872 | 37100 ft | 565 kts | 19° |
| 2026-04-17 07:02 | 31.09392 | 114.18769 | 37129 ft | 567 kts | 19° |
| 2026-04-17 07:03 | 31.16577 | 114.22683 | 37062 ft | 563 kts | 19° |
| 2026-04-17 07:03 | 31.23681 | 114.26555 | 37117 ft | 567 kts | 19° |
| 2026-04-17 07:04 | 31.30863 | 114.30467 | 36990 ft | 563 kts | 17° |
| 2026-04-17 07:04 | 31.34477 | 114.32004 | 37115 ft | 556 kts | 9° |
| 2026-04-17 07:04 | 31.38273 | 114.32970 | 37075 ft | 546 kts | 0° |
| 2026-04-17 07:04 | 31.41984 | 114.33347 | 37071 ft | 535 kts | 354° |
| 2026-04-17 07:05 | 31.45748 | 114.33478 | 37122 ft | 535 kts | 353° |
| 2026-04-17 07:05 | 31.53188 | 114.33691 | 37039 ft | 536 kts | 353° |
| 2026-04-17 07:06 | 31.60634 | 114.33905 | 37037 ft | 535 kts | 353° |
| 2026-04-17 07:06 | 31.68084 | 114.34123 | 37079 ft | 533 kts | 353° |
| 2026-04-17 07:07 | 31.75556 | 114.34345 | 37085 ft | 535 kts | 353° |
| 2026-04-17 07:07 | 31.82984 | 114.34571 | 37068 ft | 532 kts | 353° |
| 2026-04-17 07:08 | 31.90396 | 114.34793 | 37078 ft | 534 kts | 353° |
| 2026-04-17 07:08 | 31.97848 | 114.35018 | 37082 ft | 534 kts | 353° |
| 2026-04-17 07:09 | 32.05297 | 114.35244 | 37081 ft | 532 kts | 353° |
| 2026-04-17 07:09 | 32.12712 | 114.35468 | 37072 ft | 532 kts | 353° |
| 2026-04-17 07:10 | 32.20161 | 114.35694 | 37061 ft | 532 kts | 353° |
| 2026-04-17 07:10 | 32.27565 | 114.35943 | 37053 ft | 534 kts | 355° |
| 2026-04-17 07:11 | 32.34952 | 114.36628 | 37081 ft | 532 kts | 356° |
| 2026-04-17 07:11 | 32.42370 | 114.37337 | 37096 ft | 535 kts | 356° |
| 2026-04-17 07:12 | 32.49801 | 114.38036 | 37065 ft | 535 kts | 356° |
| 2026-04-17 07:12 | 32.57197 | 114.38724 | 37073 ft | 535 kts | 356° |
| 2026-04-17 07:13 | 32.64659 | 114.39414 | 37073 ft | 535 kts | 356° |
| 2026-04-17 07:13 | 32.72059 | 114.40106 | 37059 ft | 531 kts | 356° |
| 2026-04-17 07:14 | 32.79465 | 114.40797 | 37085 ft | 534 kts | 356° |
| 2026-04-17 07:14 | 32.86897 | 114.41493 | 37074 ft | 530 kts | 356° |
| 2026-04-17 07:15 | 32.94252 | 114.42180 | 37073 ft | 531 kts | 356° |
| 2026-04-17 07:15 | 33.01612 | 114.42870 | 37071 ft | 529 kts | 356° |
| 2026-04-17 07:16 | 33.08966 | 114.43559 | 37069 ft | 531 kts | 356° |
| 2026-04-17 07:16 | 33.16373 | 114.44254 | 37064 ft | 531 kts | 356° |
| 2026-04-17 07:17 | 33.23727 | 114.44946 | 37061 ft | 532 kts | 356° |
| 2026-04-17 07:17 | 33.34774 | 114.45986 | 37067 ft | 530 kts | 356° |
| 2026-04-17 07:18 | 33.42153 | 114.46680 | 37066 ft | 530 kts | 356° |
| 2026-04-17 07:18 | 33.49495 | 114.47372 | 37058 ft | 530 kts | 356° |
| 2026-04-17 07:19 | 33.56847 | 114.48065 | 37073 ft | 531 kts | 356° |
| 2026-04-17 07:19 | 33.64253 | 114.48763 | 37065 ft | 531 kts | 356° |
| 2026-04-17 07:20 | 33.71585 | 114.49448 | 37067 ft | 531 kts | 356° |
| 2026-04-17 07:20 | 33.79023 | 114.50144 | 37069 ft | 532 kts | 356° |
| 2026-04-17 07:21 | 33.86407 | 114.50838 | 37076 ft | 532 kts | 356° |
| 2026-04-17 07:21 | 33.93791 | 114.51534 | 37070 ft | 530 kts | 356° |
| 2026-04-17 07:22 | 34.01174 | 114.52230 | 37074 ft | 533 kts | 356° |
| 2026-04-17 07:22 | 34.08559 | 114.52930 | 37065 ft | 529 kts | 356° |
| 2026-04-17 07:23 | 34.15960 | 114.53630 | 37062 ft | 532 kts | 356° |
| 2026-04-17 07:23 | 34.23272 | 114.54327 | 37058 ft | 528 kts | 356° |
| 2026-04-17 07:24 | 34.30654 | 114.55026 | 37077 ft | 530 kts | 356° |
| 2026-04-17 07:24 | 34.38041 | 114.55730 | 37050 ft | 528 kts | 356° |
| 2026-04-17 07:25 | 34.45348 | 114.56427 | 37051 ft | 528 kts | 356° |
| 2026-04-17 07:25 | 34.52644 | 114.57121 | 37069 ft | 527 kts | 356° |
| 2026-04-17 07:26 | 34.59983 | 114.57815 | 37050 ft | 527 kts | 356° |
| 2026-04-17 07:26 | 34.67267 | 114.58507 | 37057 ft | 527 kts | 356° |
| 2026-04-17 07:27 | 34.74577 | 114.59205 | 37047 ft | 522 kts | 356° |
| 2026-04-17 07:27 | 34.81833 | 114.59894 | 37049 ft | 526 kts | 356° |
| 2026-04-17 07:28 | 34.89140 | 114.60592 | 37060 ft | 525 kts | 356° |
| 2026-04-17 07:28 | 34.96415 | 114.61289 | 37063 ft | 521 kts | 356° |
| 2026-04-17 07:29 | 35.03653 | 114.61982 | 37050 ft | 521 kts | 356° |
| 2026-04-17 07:29 | 35.10926 | 114.62679 | 37063 ft | 522 kts | 357° |
| 2026-04-17 07:30 | 35.18196 | 114.63378 | 37052 ft | 523 kts | 357° |
| 2026-04-17 07:30 | 35.25455 | 114.64078 | 37055 ft | 522 kts | 357° |
| 2026-04-17 07:31 | 35.32704 | 114.64778 | 37060 ft | 521 kts | 357° |
| 2026-04-17 07:31 | 35.39991 | 114.65483 | 37036 ft | 522 kts | 357° |
| 2026-04-17 07:32 | 35.47191 | 114.66181 | 37034 ft | 520 kts | 358° |
| 2026-04-17 07:32 | 35.54398 | 114.66881 | 37010 ft | 520 kts | 358° |
| 2026-04-17 07:33 | 35.61650 | 114.67586 | 37035 ft | 519 kts | 358° |
| 2026-04-17 07:33 | 35.68875 | 114.68289 | 37035 ft | 521 kts | 358° |
| 2026-04-17 07:34 | 35.76074 | 114.68993 | 37034 ft | 518 kts | 359° |
| 2026-04-17 07:34 | 35.83292 | 114.69697 | 37052 ft | 520 kts | 358° |
| 2026-04-17 07:35 | 35.90507 | 114.70405 | 37021 ft | 516 kts | 359° |
| 2026-04-17 07:35 | 35.97665 | 114.71107 | 37032 ft | 517 kts | 359° |
| 2026-04-17 07:36 | 36.04836 | 114.71811 | 37034 ft | 518 kts | 359° |
| 2026-04-17 07:36 | 36.12001 | 114.72516 | 37013 ft | 515 kts | 359° |
| 2026-04-17 07:37 | 36.19194 | 114.73219 | 37022 ft | 516 kts | 359° |
| 2026-04-17 07:37 | 36.26369 | 114.73921 | 37016 ft | 516 kts | 359° |
| 2026-04-17 07:38 | 36.33495 | 114.74640 | 37026 ft | 517 kts | 0° |
| 2026-04-17 07:38 | 36.40516 | 114.76856 | 37003 ft | 529 kts | 18° |
| 2026-04-17 07:39 | 36.47271 | 114.80688 | 37030 ft | 532 kts | 20° |
| 2026-04-17 07:39 | 36.53955 | 114.84573 | 36997 ft | 529 kts | 20° |
| 2026-04-17 07:40 | 36.60600 | 114.88436 | 37008 ft | 529 kts | 20° |
| 2026-04-17 07:40 | 36.67289 | 114.92328 | 37005 ft | 531 kts | 20° |
| 2026-04-17 07:41 | 36.73990 | 114.96234 | 37009 ft | 529 kts | 20° |
| 2026-04-17 07:41 | 36.80671 | 115.00133 | 37023 ft | 530 kts | 20° |
| 2026-04-17 07:42 | 36.87373 | 115.04054 | 36987 ft | 527 kts | 20° |
| 2026-04-17 07:42 | 36.94010 | 115.07941 | 36982 ft | 528 kts | 20° |
| 2026-04-17 07:43 | 37.00681 | 115.11857 | 36996 ft | 529 kts | 20° |
| 2026-04-17 07:43 | 37.07333 | 115.15769 | 37010 ft | 526 kts | 20° |
| 2026-04-17 07:44 | 37.13989 | 115.19691 | 36980 ft | 526 kts | 20° |
| 2026-04-17 07:44 | 37.20605 | 115.23596 | 37025 ft | 528 kts | 20° |
| 2026-04-17 07:45 | 37.27226 | 115.27513 | 37001 ft | 526 kts | 20° |
| 2026-04-17 07:45 | 37.33851 | 115.31439 | 37008 ft | 525 kts | 20° |
| 2026-04-17 07:46 | 37.40451 | 115.35358 | 36999 ft | 526 kts | 20° |
| 2026-04-17 07:46 | 37.47036 | 115.39277 | 36986 ft | 524 kts | 20° |
| 2026-04-17 07:47 | 37.53664 | 115.43228 | 36993 ft | 525 kts | 20° |
| 2026-04-17 07:47 | 37.60263 | 115.47169 | 37024 ft | 524 kts | 20° |
| 2026-04-17 07:48 | 37.66810 | 115.51089 | 37012 ft | 522 kts | 19° |
| 2026-04-17 07:48 | 37.73390 | 115.55035 | 36968 ft | 520 kts | 20° |
| 2026-04-17 07:49 | 37.80106 | 115.57944 | 36991 ft | 508 kts | 4° |
| 2026-04-17 07:49 | 37.87074 | 115.58360 | 36992 ft | 495 kts | 351° |
| 2026-04-17 07:50 | 37.93953 | 115.57858 | 37027 ft | 495 kts | 350° |
| 2026-04-17 07:50 | 38.00808 | 115.57346 | 36990 ft | 494 kts | 350° |
| 2026-04-17 07:51 | 38.07691 | 115.56831 | 37026 ft | 494 kts | 350° |
| 2026-04-17 07:51 | 38.14592 | 115.56451 | 36969 ft | 490 kts | 351° |
| 2026-04-17 07:52 | 38.21440 | 115.55978 | 36952 ft | 492 kts | 352° |
| 2026-04-17 07:52 | 38.28316 | 115.57003 | 36997 ft | 507 kts | 9° |
| 2026-04-17 07:53 | 38.34913 | 115.60518 | 37005 ft | 517 kts | 20° |
| 2026-04-17 07:53 | 38.41266 | 115.64564 | 37016 ft | 514 kts | 20° |
| 2026-04-17 07:54 | 38.47700 | 115.68650 | 37007 ft | 516 kts | 21° |
| 2026-04-17 07:54 | 38.54150 | 115.72740 | 36983 ft | 516 kts | 21° |
| 2026-04-17 07:55 | 38.60523 | 115.76783 | 36950 ft | 513 kts | 21° |
| 2026-04-17 07:55 | 38.66643 | 115.81541 | 36970 ft | 523 kts | 34° |
| 2026-04-17 07:56 | 38.71790 | 115.88252 | 36958 ft | 532 kts | 44° |
| 2026-04-17 07:56 | 38.76741 | 115.95367 | 36976 ft | 531 kts | 43° |
| 2026-04-17 07:57 | 38.81645 | 116.02415 | 36990 ft | 532 kts | 43° |
| 2026-04-17 07:57 | 38.86545 | 116.09459 | 36981 ft | 532 kts | 43° |
| 2026-04-17 07:58 | 38.91482 | 116.16567 | 36967 ft | 530 kts | 43° |
| 2026-04-17 07:58 | 38.96360 | 116.23602 | 37003 ft | 528 kts | 43° |
| 2026-04-17 07:59 | 39.01222 | 116.30626 | 36964 ft | 528 kts | 43° |
| 2026-04-17 07:59 | 39.06108 | 116.37698 | 36946 ft | 529 kts | 43° |
| 2026-04-17 08:00 | 39.10996 | 116.44794 | 37009 ft | 528 kts | 44° |
| 2026-04-17 08:00 | 39.15024 | 116.52776 | 36993 ft | 539 kts | 62° |
| 2026-04-17 08:01 | 39.17204 | 116.62080 | 36998 ft | 549 kts | 79° |
| 2026-04-17 08:01 | 39.17324 | 116.71920 | 36991 ft | 554 kts | 97° |
| 2026-04-17 08:02 | 39.15865 | 116.81617 | 36975 ft | 555 kts | 102° |
| 2026-04-17 08:02 | 39.14269 | 116.91378 | 36997 ft | 556 kts | 102° |
| 2026-04-17 08:03 | 39.12712 | 117.01058 | 37005 ft | 555 kts | 100° |
| 2026-04-17 08:03 | 39.11391 | 117.10854 | 36996 ft | 555 kts | 99° |
| 2026-04-17 08:04 | 39.10099 | 117.20633 | 37021 ft | 557 kts | 99° |
| 2026-04-17 08:04 | 39.08787 | 117.30462 | 37022 ft | 555 kts | 99° |
| 2026-04-17 08:05 | 39.07822 | 117.40302 | 37017 ft | 556 kts | 90° |
| 2026-04-17 08:05 | 39.07703 | 117.50163 | 37039 ft | 556 kts | 89° |
| 2026-04-17 08:06 | 39.07601 | 117.60141 | 37021 ft | 557 kts | 89° |
| 2026-04-17 08:06 | 39.07487 | 117.70084 | 36983 ft | 557 kts | 90° |
| 2026-04-17 08:07 | 39.07361 | 117.80077 | 37006 ft | 557 kts | 90° |
| 2026-04-17 08:07 | 39.07225 | 117.89999 | 37009 ft | 555 kts | 90° |
| 2026-04-17 08:08 | 39.07079 | 117.99924 | 36997 ft | 558 kts | 91° |
| 2026-04-17 08:08 | 39.06033 | 118.09753 | 37010 ft | 558 kts | 101° |
| 2026-04-17 08:09 | 39.04732 | 118.19584 | 37006 ft | 559 kts | 93° |
| 2026-04-17 08:09 | 39.05232 | 118.29532 | 37012 ft | 554 kts | 76° |
| 2026-04-17 08:10 | 39.07771 | 118.38761 | 36976 ft | 547 kts | 58° |
| 2026-04-17 08:10 | 39.12109 | 118.46656 | 37011 ft | 534 kts | 41° |
| 2026-04-17 08:11 | 39.17813 | 118.52580 | 37024 ft | 519 kts | 24° |
| 2026-04-17 08:11 | 39.24342 | 118.56245 | 37023 ft | 507 kts | 11° |
| 2026-04-17 08:12 | 39.31144 | 118.58810 | 37028 ft | 504 kts | 9° |
| 2026-04-17 08:12 | 39.37927 | 118.61158 | 37013 ft | 503 kts | 8° |
| 2026-04-17 08:13 | 39.44730 | 118.63399 | 37014 ft | 503 kts | 8° |
| 2026-04-17 08:14 | 39.54923 | 118.66645 | 36985 ft | 503 kts | 8° |
| 2026-04-17 08:14 | 39.61709 | 118.68772 | 37014 ft | 503 kts | 8° |
| 2026-04-17 08:15 | 39.68514 | 118.70895 | 37020 ft | 504 kts | 7° |
| 2026-04-17 08:15 | 39.75164 | 118.73942 | 36982 ft | 515 kts | 22° |
| 2026-04-17 08:16 | 39.81204 | 118.79169 | 36944 ft | 523 kts | 31° |
| 2026-04-17 08:16 | 39.87086 | 118.84724 | 36983 ft | 522 kts | 31° |
| 2026-04-17 08:17 | 39.92980 | 118.90290 | 36997 ft | 523 kts | 31° |
| 2026-04-17 08:17 | 39.98859 | 118.95843 | 36964 ft | 524 kts | 31° |
| 2026-04-17 08:18 | 40.04721 | 119.01386 | 36982 ft | 523 kts | 30° |
| 2026-04-17 08:18 | 40.10650 | 119.07001 | 37004 ft | 523 kts | 31° |
| 2026-04-17 08:19 | 40.16535 | 119.12587 | 37007 ft | 522 kts | 31° |
| 2026-04-17 08:19 | 40.22390 | 119.18156 | 37004 ft | 519 kts | 31° |
| 2026-04-17 08:20 | 40.28307 | 119.23680 | 37012 ft | 521 kts | 30° |
| 2026-04-17 08:20 | 40.34184 | 119.29156 | 37015 ft | 521 kts | 30° |
| 2026-04-17 08:21 | 40.40091 | 119.34675 | 37020 ft | 521 kts | 30° |
| 2026-04-17 08:21 | 40.45919 | 119.40137 | 37027 ft | 518 kts | 30° |
| 2026-04-17 08:22 | 40.51789 | 119.45648 | 36991 ft | 519 kts | 30° |
| 2026-04-17 08:22 | 40.57686 | 119.51199 | 36975 ft | 518 kts | 30° |
| 2026-04-17 08:23 | 40.63518 | 119.56701 | 37000 ft | 519 kts | 30° |
| 2026-04-17 08:23 | 40.69393 | 119.62257 | 36986 ft | 518 kts | 30° |
| 2026-04-17 08:24 | 40.75209 | 119.67769 | 36999 ft | 517 kts | 31° |
| 2026-04-17 08:24 | 40.81067 | 119.73332 | 36972 ft | 518 kts | 31° |
| 2026-04-17 08:25 | 40.86913 | 119.78896 | 37028 ft | 520 kts | 31° |
| 2026-04-17 08:25 | 40.92762 | 119.84477 | 36997 ft | 517 kts | 31° |
| 2026-04-17 08:26 | 40.98597 | 119.90056 | 36952 ft | 518 kts | 31° |
| 2026-04-17 08:26 | 41.04410 | 119.95627 | 36964 ft | 517 kts | 31° |
| 2026-04-17 08:27 | 41.10251 | 120.01236 | 36969 ft | 518 kts | 31° |
| 2026-04-17 08:27 | 41.16068 | 120.06836 | 36962 ft | 517 kts | 31° |
| 2026-04-17 08:28 | 41.21853 | 120.12418 | 36953 ft | 516 kts | 31° |
| 2026-04-17 08:28 | 41.27690 | 120.18059 | 36954 ft | 518 kts | 31° |
| 2026-04-17 08:29 | 41.33496 | 120.23687 | 36957 ft | 518 kts | 31° |
| 2026-04-17 08:29 | 41.39266 | 120.29292 | 36925 ft | 516 kts | 31° |
| 2026-04-17 08:30 | 41.45034 | 120.34943 | 36902 ft | 518 kts | 33° |
| 2026-04-17 08:30 | 41.49999 | 120.42018 | 36967 ft | 531 kts | 51° |
| 2026-04-17 08:31 | 41.53303 | 120.50830 | 36947 ft | 541 kts | 68° |
| 2026-04-17 08:31 | 41.54660 | 120.60777 | 36952 ft | 549 kts | 83° |
| 2026-04-17 08:32 | 41.55182 | 120.70985 | 36897 ft | 550 kts | 84° |
| 2026-04-17 08:32 | 41.55685 | 120.81128 | 36973 ft | 550 kts | 84° |
| 2026-04-17 08:32 | 41.55936 | 120.86180 | 36859 ft | 546 kts | 84° |
| 2026-04-17 08:33 | 41.56184 | 120.91206 | 36925 ft | 530 kts | 85° |
| 2026-04-17 08:33 | 41.56420 | 120.96027 | 36889 ft | 516 kts | 84° |
| 2026-04-17 08:33 | 41.56653 | 121.00784 | 36907 ft | 514 kts | 84° |
| 2026-04-17 08:34 | 41.57118 | 121.10328 | 36914 ft | 516 kts | 85° |
| 2026-04-17 08:34 | 41.57573 | 121.19907 | 36939 ft | 518 kts | 85° |
| 2026-04-17 08:35 | 41.57858 | 121.29542 | 36965 ft | 516 kts | 86° |
| 2026-04-17 08:35 | 41.58116 | 121.39060 | 36876 ft | 514 kts | 86° |
| 2026-04-17 08:35 | 41.58244 | 121.43796 | 36661 ft | 513 kts | 86° |
| 2026-04-17 08:36 | 41.58371 | 121.48540 | 36408 ft | 515 kts | 86° |
| 2026-04-17 08:36 | 41.58499 | 121.53340 | 36112 ft | 518 kts | 86° |
| 2026-04-17 08:36 | 41.58626 | 121.58160 | 35918 ft | 518 kts | 86° |
| 2026-04-17 08:36 | 41.58749 | 121.62930 | 35718 ft | 512 kts | 86° |
| 2026-04-17 08:37 | 41.58870 | 121.67662 | 34956 ft | 517 kts | 87° |
| 2026-04-17 08:37 | 41.58994 | 121.72540 | 33830 ft | 528 kts | 87° |
| 2026-04-17 08:37 | 41.59116 | 121.77434 | 32758 ft | 534 kts | 87° |
| 2026-04-17 08:37 | 41.59234 | 121.82259 | 31747 ft | 539 kts | 87° |
| 2026-04-17 08:38 | 41.59354 | 121.87242 | 30730 ft | 541 kts | 86° |
| 2026-04-17 08:38 | 41.59472 | 121.92230 | 30063 ft | 534 kts | 86° |
| 2026-04-17 08:38 | 41.59583 | 121.97087 | 29500 ft | 527 kts | 86° |
| 2026-04-17 08:38 | 41.59693 | 122.01936 | 28918 ft | 521 kts | 86° |
| 2026-04-17 08:39 | 41.59800 | 122.06734 | 28293 ft | 515 kts | 86° |
| 2026-04-17 08:39 | 41.59718 | 122.11443 | 27639 ft | 511 kts | 94° |
| 2026-04-17 08:39 | 41.59271 | 122.16138 | 27024 ft | 506 kts | 96° |
| 2026-04-17 08:39 | 41.58767 | 122.20767 | 26365 ft | 501 kts | 97° |
| 2026-04-17 08:40 | 41.58266 | 122.25309 | 25717 ft | 496 kts | 96° |
| 2026-04-17 08:40 | 41.57765 | 122.29832 | 25054 ft | 491 kts | 96° |
| 2026-04-17 08:40 | 41.57268 | 122.34295 | 24373 ft | 486 kts | 96° |
| 2026-04-17 08:40 | 41.56771 | 122.38740 | 23718 ft | 480 kts | 96° |
| 2026-04-17 08:41 | 41.56283 | 122.43082 | 23065 ft | 475 kts | 96° |
| 2026-04-17 08:41 | 41.55794 | 122.47414 | 22427 ft | 469 kts | 96° |
| 2026-04-17 08:41 | 41.55312 | 122.51675 | 21775 ft | 464 kts | 96° |
| 2026-04-17 08:41 | 41.54832 | 122.55909 | 21123 ft | 459 kts | 96° |
| 2026-04-17 08:42 | 41.54355 | 122.60091 | 20475 ft | 455 kts | 96° |
| 2026-04-17 08:42 | 41.53885 | 122.64200 | 19833 ft | 450 kts | 96° |
| 2026-04-17 08:42 | 41.53412 | 122.68319 | 19188 ft | 446 kts | 96° |
| 2026-04-17 08:42 | 41.52945 | 122.72374 | 18547 ft | 441 kts | 96° |
| 2026-04-17 08:43 | 41.52484 | 122.76363 | 17894 ft | 437 kts | 96° |
| 2026-04-17 08:43 | 41.52022 | 122.80360 | 17265 ft | 433 kts | 96° |
| 2026-04-17 08:43 | 41.51565 | 122.84283 | 16622 ft | 430 kts | 96° |
| 2026-04-17 08:43 | 41.51109 | 122.88193 | 15974 ft | 427 kts | 96° |
| 2026-04-17 08:44 | 41.50656 | 122.92067 | 15325 ft | 423 kts | 95° |
| 2026-04-17 08:44 | 41.50204 | 122.95918 | 14691 ft | 419 kts | 95° |
| 2026-04-17 08:44 | 41.49773 | 122.99698 | 14060 ft | 414 kts | 92° |
| 2026-04-17 08:44 | 41.49705 | 123.03522 | 13448 ft | 404 kts | 81° |
| 2026-04-17 08:45 | 41.50147 | 123.07155 | 12874 ft | 393 kts | 70° |
| 2026-04-17 08:45 | 41.51060 | 123.10508 | 12284 ft | 382 kts | 59° |
| 2026-04-17 08:45 | 41.52383 | 123.13479 | 11692 ft | 372 kts | 48° |
| 2026-04-17 08:45 | 41.53950 | 123.16183 | 11106 ft | 367 kts | 46° |
| 2026-04-17 08:46 | 41.55538 | 123.18826 | 10612 ft | 360 kts | 45° |
| 2026-04-17 08:46 | 41.57084 | 123.21345 | 10522 ft | 342 kts | 44° |
| 2026-04-17 08:46 | 41.58572 | 123.23724 | 10411 ft | 327 kts | 43° |
| 2026-04-17 08:46 | 41.60014 | 123.25976 | 10283 ft | 313 kts | 42° |
| 2026-04-17 08:47 | 41.61422 | 123.28127 | 10158 ft | 301 kts | 41° |
| 2026-04-17 08:47 | 41.62795 | 123.30201 | 10037 ft | 290 kts | 41° |
| 2026-04-17 08:47 | 41.64106 | 123.32176 | 9886 ft | 281 kts | 41° |
| 2026-04-17 08:47 | 41.65398 | 123.34118 | 9517 ft | 281 kts | 41° |
| 2026-04-17 08:48 | 41.66708 | 123.36086 | 9139 ft | 282 kts | 41° |
| 2026-04-17 08:48 | 41.68004 | 123.38041 | 8790 ft | 282 kts | 41° |
| 2026-04-17 08:48 | 41.69289 | 123.39982 | 8453 ft | 281 kts | 41° |
| 2026-04-17 08:48 | 41.70599 | 123.41939 | 8112 ft | 279 kts | 38° |
| 2026-04-17 08:49 | 41.71984 | 123.43697 | 7787 ft | 276 kts | 36° |
| 2026-04-17 08:49 | 41.73404 | 123.45456 | 7456 ft | 275 kts | 36° |
| 2026-04-17 08:49 | 41.74784 | 123.47199 | 7133 ft | 274 kts | 37° |
| 2026-04-17 08:49 | 41.76171 | 123.48968 | 6805 ft | 274 kts | 37° |
| 2026-04-17 08:50 | 41.77558 | 123.50745 | 6477 ft | 273 kts | 38° |
| 2026-04-17 08:50 | 41.78880 | 123.52567 | 6147 ft | 275 kts | 43° |
| 2026-04-17 08:50 | 41.80119 | 123.54508 | 5809 ft | 276 kts | 44° |
| 2026-04-17 08:50 | 41.81375 | 123.56456 | 5484 ft | 275 kts | 44° |
| 2026-04-17 08:51 | 41.82628 | 123.58371 | 5160 ft | 275 kts | 44° |
| 2026-04-17 08:51 | 41.83817 | 123.60423 | 4809 ft | 278 kts | 60° |
| 2026-04-17 08:51 | 41.84307 | 123.62881 | 4460 ft | 279 kts | 90° |
| 2026-04-17 08:51 | 41.83919 | 123.65372 | 4185 ft | 270 kts | 120° |
| 2026-04-17 08:52 | 41.82849 | 123.67320 | 4107 ft | 252 kts | 138° |
| 2026-04-17 08:52 | 41.81596 | 123.68927 | 4025 ft | 238 kts | 150° |
| 2026-04-17 08:52 | 41.80163 | 123.69688 | 3926 ft | 214 kts | 182° |
| 2026-04-17 08:52 | 41.78733 | 123.69521 | 3849 ft | 201 kts | 204° |
| 2026-04-17 08:53 | 41.77542 | 123.68650 | 3653 ft | 189 kts | 219° |
| 2026-04-17 08:53 | 41.76603 | 123.67467 | 3461 ft | 181 kts | 230° |
| 2026-04-17 08:53 | 41.75793 | 123.66228 | 3286 ft | 174 kts | 230° |
| 2026-04-17 08:53 | 41.75004 | 123.65018 | 3071 ft | 170 kts | 229° |
| 2026-04-17 08:54 | 41.74232 | 123.63842 | 2862 ft | 166 kts | 229° |
| 2026-04-17 08:54 | 41.73480 | 123.62700 | 2656 ft | 163 kts | 229° |
| 2026-04-17 08:54 | 41.72742 | 123.61578 | 2464 ft | 156 kts | 229° |
| 2026-04-17 08:54 | 41.72042 | 123.60513 | 2271 ft | 155 kts | 230° |
| 2026-04-17 08:55 | 41.71334 | 123.59435 | 2070 ft | 151 kts | 229° |
| 2026-04-17 08:55 | 41.70662 | 123.58416 | 1876 ft | 140 kts | 229° |
| 2026-04-17 08:55 | 41.70050 | 123.57491 | 1712 ft | 128 kts | 230° |
| 2026-04-17 08:55 | 41.69463 | 123.56601 | 1542 ft | 125 kts | 229° |
| 2026-04-17 08:56 | 41.68890 | 123.55736 | 1378 ft | 125 kts | 229° |
| 2026-04-17 08:56 | 41.68318 | 123.54869 | 1218 ft | 124 kts | 229° |
| 2026-04-17 08:56 | 41.67738 | 123.53993 | 1051 ft | 127 kts | 230° |
| 2026-04-17 08:56 | 41.67152 | 123.53113 | 859 ft | 127 kts | 229° |
| 2026-04-17 08:57 | 41.66562 | 123.52248 | 679 ft | 125 kts | 231° |
| 2026-04-17 08:57 | 41.65985 | 123.51360 | 509 ft | 127 kts | 230° |
| 2026-04-17 08:57 | 41.65401 | 123.50483 | 361 ft | 126 kts | 231° |
| 2026-04-17 08:57 | 41.64833 | 123.49610 | 218 ft | 123 kts | 231° |
| 2026-04-17 08:58 | 41.64368 | 123.48898 | 213 ft | 75 kts | 229° |
| 2026-04-17 08:58 | 41.64141 | 123.48556 | 213 ft | 24 kts | 229° |
| 2026-04-17 08:58 | 41.64034 | 123.48396 | 213 ft | 21 kts | 229° |
| 2026-04-17 08:58 | 41.63940 | 123.48254 | 213 ft | 19 kts | 228° |
| 2026-04-17 08:59 | 41.63851 | 123.48120 | 213 ft | 19 kts | 230° |
| 2026-04-17 08:59 | 41.63749 | 123.48003 | 213 ft | 19 kts | 214° |
| 2026-04-17 08:59 | 41.63622 | 123.47925 | 213 ft | 21 kts | 198° |
| 2026-04-17 08:59 | 41.63533 | 123.47894 | 213 ft | 8 kts | 167° |
| 2026-04-17 09:00 | 41.63514 | 123.47974 | 213 ft | 11 kts | 73° |
| 2026-04-17 09:00 | 41.63547 | 123.48051 | 213 ft | 7 kts | 94° |
| 2026-04-17 09:00 | 41.63510 | 123.48114 | 213 ft | 10 kts | 136° |
| 2026-04-17 09:00 | 41.63457 | 123.48196 | 213 ft | 13 kts | 120° |
| 2026-04-17 09:01 | 41.63441 | 123.48279 | 213 ft | 7 kts | 86° |
| 2026-04-17 09:01 | 41.63435 | 123.48346 | 213 ft | 5 kts | 139° |
| 2026-04-17 09:01 | 41.63401 | 123.48357 | 213 ft | 4 kts | 173° |
| 2026-04-17 09:01 | 41.63371 | 123.48362 | 213 ft | 3 kts | 173° |
| 2026-04-17 09:02 | 41.63363 | 123.48364 | 213 ft | 1 kts | 173° |
| 2026-04-17 09:02 | 41.63358 | 123.48365 | 213 ft | 0 kts | 173° |